sensor_id;sensor_type;location;lat;lon;timestamp;pressure;altitude;pressure_sealevel;temperature;humidity
46464;BME280;32161;48.148;-1.554;2022-08-25T00:02:05;100929.72;;;23.19;91.38
46464;BME280;32161;48.148;-1.554;2022-08-25T00:04:34;100936.06;;;23.05;91.97
46464;BME280;32161;48.148;-1.554;2022-08-25T00:07:03;100924.78;;;23.02;92.09
46464;BME280;32161;48.148;-1.554;2022-08-25T00:09:32;100929.72;;;23.05;91.30
46464;BME280;32161;48.148;-1.554;2022-08-25T00:12:03;100922.53;;;23.04;91.29
46464;BME280;32161;48.148;-1.554;2022-08-25T00:14:34;100923.97;;;23.01;91.54
46464;BME280;32161;48.148;-1.554;2022-08-25T00:17:04;100937.34;;;22.99;91.92
46464;BME280;32161;48.148;-1.554;2022-08-25T00:19:35;100930.97;;;22.99;91.76
46464;BME280;32161;48.148;-1.554;2022-08-25T00:22:04;100937.63;;;22.98;92.06
46464;BME280;32161;48.148;-1.554;2022-08-25T00:24:32;100939.56;;;22.97;91.68
46464;BME280;32161;48.148;-1.554;2022-08-25T00:27:03;100935.66;;;22.98;92.03
46464;BME280;32161;48.148;-1.554;2022-08-25T00:29:31;100930.13;;;22.98;92.13
46464;BME280;32161;48.148;-1.554;2022-08-25T00:32:00;100926.25;;;22.99;91.81
46464;BME280;32161;48.148;-1.554;2022-08-25T00:34:33;100925.72;;;22.97;91.89
46464;BME280;32161;48.148;-1.554;2022-08-25T00:37:04;100924.38;;;22.95;91.93
46464;BME280;32161;48.148;-1.554;2022-08-25T00:39:32;100924.91;;;22.97;92.04
46464;BME280;32161;48.148;-1.554;2022-08-25T00:42:01;100916.06;;;22.95;92.17
46464;BME280;32161;48.148;-1.554;2022-08-25T00:44:31;100909.41;;;22.96;92.47
46464;BME280;32161;48.148;-1.554;2022-08-25T00:47:01;100908.59;;;22.95;92.27
46464;BME280;32161;48.148;-1.554;2022-08-25T00:49:35;100892.78;;;22.96;92.23
46464;BME280;32161;48.148;-1.554;2022-08-25T00:52:08;100893.06;;;22.94;92.06
46464;BME280;32161;48.148;-1.554;2022-08-25T00:54:40;100893.06;;;22.94;92.16
46464;BME280;32161;48.148;-1.554;2022-08-25T00:57:15;100880.66;;;22.92;92.60
46464;BME280;32161;48.148;-1.554;2022-08-25T00:59:44;100877.06;;;22.91;92.27
46464;BME280;32161;48.148;-1.554;2022-08-25T01:02:13;100870.97;;;22.89;92.32
46464;BME280;32161;48.148;-1.554;2022-08-25T01:04:43;100866.84;;;22.86;92.58
46464;BME280;32161;48.148;-1.554;2022-08-25T01:07:12;100882.66;;;22.86;92.45
46464;BME280;32161;48.148;-1.554;2022-08-25T01:09:41;100886.59;;;22.85;92.44
46464;BME280;32161;48.148;-1.554;2022-08-25T01:12:11;100893.25;;;22.84;92.70
46464;BME280;32161;48.148;-1.554;2022-08-25T01:14:39;100881.44;;;22.78;93.04
46464;BME280;32161;48.148;-1.554;2022-08-25T01:17:07;100888.13;;;22.77;92.79
46464;BME280;32161;48.148;-1.554;2022-08-25T01:19:35;100894.28;;;22.74;92.92
46464;BME280;32161;48.148;-1.554;2022-08-25T01:22:04;100896.84;;;22.71;92.94
46464;BME280;32161;48.148;-1.554;2022-08-25T01:24:44;100909.88;;;22.70;93.04
46464;BME280;32161;48.148;-1.554;2022-08-25T01:27:13;100908.53;;;22.67;93.37
46464;BME280;32161;48.148;-1.554;2022-08-25T01:29:41;100915.75;;;22.69;93.29
46464;BME280;32161;48.148;-1.554;2022-08-25T01:32:11;100921.50;;;22.72;93.21
46464;BME280;32161;48.148;-1.554;2022-08-25T01:34:42;100917.16;;;22.66;93.57
46464;BME280;32161;48.148;-1.554;2022-08-25T01:37:14;100930.53;;;22.64;93.58
46464;BME280;32161;48.148;-1.554;2022-08-25T01:39:44;100946.31;;;22.63;93.46
46464;BME280;32161;48.148;-1.554;2022-08-25T01:42:32;100959.66;;;22.61;93.45
46464;BME280;32161;48.148;-1.554;2022-08-25T01:45:00;100967.44;;;22.59;93.56
46464;BME280;32161;48.148;-1.554;2022-08-25T01:47:28;100976.47;;;22.51;94.49
46464;BME280;32161;48.148;-1.554;2022-08-25T01:49:57;100968.25;;;22.46;94.72
46464;BME280;32161;48.148;-1.554;2022-08-25T01:52:31;100966.09;;;22.43;94.92
46464;BME280;32161;48.148;-1.554;2022-08-25T01:54:59;100970.00;;;22.42;95.35
46464;BME280;32161;48.148;-1.554;2022-08-25T01:57:29;100973.38;;;22.39;95.56
46464;BME280;32161;48.148;-1.554;2022-08-25T01:59:57;100987.63;;;22.13;95.98
46464;BME280;32161;48.148;-1.554;2022-08-25T02:02:24;100987.56;;;22.00;97.34
46464;BME280;32161;48.148;-1.554;2022-08-25T02:04:52;100975.38;;;22.01;97.92
46464;BME280;32161;48.148;-1.554;2022-08-25T02:07:20;100984.19;;;22.03;97.82
46464;BME280;32161;48.148;-1.554;2022-08-25T02:09:49;100976.78;;;22.17;97.17
46464;BME280;32161;48.148;-1.554;2022-08-25T02:12:16;100986.28;;;22.30;96.14
46464;BME280;32161;48.148;-1.554;2022-08-25T02:14:44;100992.19;;;22.23;96.62
46464;BME280;32161;48.148;-1.554;2022-08-25T02:17:11;100981.34;;;22.27;97.05
46464;BME280;32161;48.148;-1.554;2022-08-25T02:19:39;100980.06;;;22.00;96.94
46464;BME280;32161;48.148;-1.554;2022-08-25T02:22:07;100971.78;;;22.19;96.74
46464;BME280;32161;48.148;-1.554;2022-08-25T02:24:34;100955.38;;;22.23;96.55
46464;BME280;32161;48.148;-1.554;2022-08-25T02:27:03;100941.81;;;21.69;98.45
46464;BME280;32161;48.148;-1.554;2022-08-25T02:29:31;100942.03;;;21.54;99.36
46464;BME280;32161;48.148;-1.554;2022-08-25T02:31:59;100940.22;;;21.63;99.42
46464;BME280;32161;48.148;-1.554;2022-08-25T02:34:28;100941.69;;;21.61;98.62
46464;BME280;32161;48.148;-1.554;2022-08-25T02:36:55;100935.47;;;21.50;99.72
46464;BME280;32161;48.148;-1.554;2022-08-25T02:39:23;100926.75;;;21.19;100.00
46464;BME280;32161;48.148;-1.554;2022-08-25T02:41:51;100924.66;;;21.30;100.00
46464;BME280;32161;48.148;-1.554;2022-08-25T02:44:19;100918.50;;;21.57;99.47
46464;BME280;32161;48.148;-1.554;2022-08-25T02:46:47;100912.16;;;21.56;99.63
46464;BME280;32161;48.148;-1.554;2022-08-25T02:49:15;100901.72;;;21.48;98.87
46464;BME280;32161;48.148;-1.554;2022-08-25T02:51:43;100900.19;;;21.42;99.22
46464;BME280;32161;48.148;-1.554;2022-08-25T02:54:11;100910.19;;;21.38;99.61
46464;BME280;32161;48.148;-1.554;2022-08-25T02:56:39;100895.97;;;21.26;100.00
46464;BME280;32161;48.148;-1.554;2022-08-25T02:59:07;100886.56;;;21.27;99.76
46464;BME280;32161;48.148;-1.554;2022-08-25T03:01:37;100876.56;;;21.50;98.51
46464;BME280;32161;48.148;-1.554;2022-08-25T03:04:05;100878.50;;;21.49;98.19
46464;BME280;32161;48.148;-1.554;2022-08-25T03:06:33;100883.44;;;21.33;98.72
46464;BME280;32161;48.148;-1.554;2022-08-25T03:09:00;100867.22;;;21.45;97.81
46464;BME280;32161;48.148;-1.554;2022-08-25T03:11:28;100882.22;;;21.58;96.95
46464;BME280;32161;48.148;-1.554;2022-08-25T03:13:56;100875.63;;;21.73;96.70
46464;BME280;32161;48.148;-1.554;2022-08-25T03:16:24;100877.88;;;21.71;96.49
46464;BME280;32161;48.148;-1.554;2022-08-25T03:18:54;100874.28;;;21.70;96.54
46464;BME280;32161;48.148;-1.554;2022-08-25T03:21:22;100877.59;;;21.73;95.75
46464;BME280;32161;48.148;-1.554;2022-08-25T03:23:50;100874.13;;;21.81;95.08
46464;BME280;32161;48.148;-1.554;2022-08-25T03:26:17;100869.41;;;21.81;94.98
46464;BME280;32161;48.148;-1.554;2022-08-25T03:29:03;100877.16;;;21.79;94.67
46464;BME280;32161;48.148;-1.554;2022-08-25T03:31:32;100879.66;;;21.81;94.53
46464;BME280;32161;48.148;-1.554;2022-08-25T03:34:02;100873.09;;;21.77;94.41
46464;BME280;32161;48.148;-1.554;2022-08-25T03:36:29;100881.81;;;21.84;94.42
46464;BME280;32161;48.148;-1.554;2022-08-25T03:38:57;100882.03;;;21.87;94.32
46464;BME280;32161;48.148;-1.554;2022-08-25T03:41:30;100886.66;;;21.92;93.99
46464;BME280;32161;48.148;-1.554;2022-08-25T03:43:59;100890.47;;;21.96;93.73
46464;BME280;32161;48.148;-1.554;2022-08-25T03:46:29;100888.72;;;22.00;93.32
46464;BME280;32161;48.148;-1.554;2022-08-25T03:49:01;100876.03;;;21.99;93.70
46464;BME280;32161;48.148;-1.554;2022-08-25T03:51:32;100881.78;;;22.03;93.29
46464;BME280;32161;48.148;-1.554;2022-08-25T03:54:02;100886.56;;;21.97;93.58
46464;BME280;32161;48.148;-1.554;2022-08-25T03:56:30;100887.69;;;21.96;93.38
46464;BME280;32161;48.148;-1.554;2022-08-25T03:58:58;100887.97;;;21.94;93.40
46464;BME280;32161;48.148;-1.554;2022-08-25T04:01:26;100898.66;;;21.87;93.98
46464;BME280;32161;48.148;-1.554;2022-08-25T04:03:54;100899.91;;;21.95;93.78
46464;BME280;32161;48.148;-1.554;2022-08-25T04:06:27;100910.75;;;21.91;93.70
46464;BME280;32161;48.148;-1.554;2022-08-25T04:08:55;100921.00;;;21.91;94.01
46464;BME280;32161;48.148;-1.554;2022-08-25T04:11:24;100942.00;;;21.92;94.19
46464;BME280;32161;48.148;-1.554;2022-08-25T04:13:56;100953.59;;;21.94;94.14
46464;BME280;32161;48.148;-1.554;2022-08-25T04:16:27;100964.06;;;21.97;94.42
46464;BME280;32161;48.148;-1.554;2022-08-25T04:18:57;100963.78;;;21.99;93.73
46464;BME280;32161;48.148;-1.554;2022-08-25T04:21:27;100965.78;;;21.93;93.44
46464;BME280;32161;48.148;-1.554;2022-08-25T04:23:56;100975.44;;;21.96;93.76
46464;BME280;32161;48.148;-1.554;2022-08-25T04:26:26;100971.78;;;22.00;93.84
46464;BME280;32161;48.148;-1.554;2022-08-25T04:28:57;100975.38;;;22.01;93.64
46464;BME280;32161;48.148;-1.554;2022-08-25T04:31:26;100970.66;;;22.01;93.25
46464;BME280;32161;48.148;-1.554;2022-08-25T04:33:55;100966.75;;;22.02;93.34
46464;BME280;32161;48.148;-1.554;2022-08-25T04:36:23;100965.09;;;22.01;93.69
46464;BME280;32161;48.148;-1.554;2022-08-25T04:38:52;100961.75;;;22.04;93.70
46464;BME280;32161;48.148;-1.554;2022-08-25T04:41:22;100957.59;;;21.88;94.04
46464;BME280;32161;48.148;-1.554;2022-08-25T04:43:51;100960.13;;;21.84;94.49
46464;BME280;32161;48.148;-1.554;2022-08-25T04:46:22;100961.91;;;21.75;94.84
46464;BME280;32161;48.148;-1.554;2022-08-25T04:48:51;100968.78;;;21.78;95.34
46464;BME280;32161;48.148;-1.554;2022-08-25T04:51:23;100967.38;;;21.80;95.49
46464;BME280;32161;48.148;-1.554;2022-08-25T04:53:52;100963.19;;;21.83;94.92
46464;BME280;32161;48.148;-1.554;2022-08-25T04:56:22;100960.94;;;21.85;95.20
46464;BME280;32161;48.148;-1.554;2022-08-25T04:58:52;100973.38;;;21.87;94.65
46464;BME280;32161;48.148;-1.554;2022-08-25T05:01:23;100984.66;;;21.91;94.36
46464;BME280;32161;48.148;-1.554;2022-08-25T05:03:56;100976.66;;;21.89;94.02
46464;BME280;32161;48.148;-1.554;2022-08-25T05:06:25;100978.59;;;21.89;94.11
46464;BME280;32161;48.148;-1.554;2022-08-25T05:08:56;100969.47;;;21.88;94.68
46464;BME280;32161;48.148;-1.554;2022-08-25T05:11:26;100968.72;;;21.83;94.48
46464;BME280;32161;48.148;-1.554;2022-08-25T05:13:55;100958.28;;;21.80;94.97
46464;BME280;32161;48.148;-1.554;2022-08-25T05:16:24;100939.13;;;21.83;95.28
46464;BME280;32161;48.148;-1.554;2022-08-25T05:18:53;100921.63;;;21.69;95.45
46464;BME280;32161;48.148;-1.554;2022-08-25T05:21:24;100911.06;;;21.52;97.12
46464;BME280;32161;48.148;-1.554;2022-08-25T05:23:56;100900.09;;;21.47;97.27
46464;BME280;32161;48.148;-1.554;2022-08-25T05:26:26;100905.03;;;21.50;97.68
46464;BME280;32161;48.148;-1.554;2022-08-25T05:28:57;100908.53;;;21.37;98.35
46464;BME280;32161;48.148;-1.554;2022-08-25T05:31:27;100911.31;;;21.37;98.17
46464;BME280;32161;48.148;-1.554;2022-08-25T05:33:55;100918.59;;;21.28;98.96
46464;BME280;32161;48.148;-1.554;2022-08-25T05:36:25;100915.03;;;21.27;99.23
46464;BME280;32161;48.148;-1.554;2022-08-25T05:38:55;100931.59;;;21.27;99.62
46464;BME280;32161;48.148;-1.554;2022-08-25T05:41:27;100929.06;;;21.31;99.08
46464;BME280;32161;48.148;-1.554;2022-08-25T05:43:56;100923.50;;;21.36;99.10
46464;BME280;32161;48.148;-1.554;2022-08-25T05:46:24;100933.97;;;21.39;98.65
46464;BME280;32161;48.148;-1.554;2022-08-25T05:48:53;100938.38;;;21.40;98.63
46464;BME280;32161;48.148;-1.554;2022-08-25T05:51:20;100944.66;;;21.45;98.52
46464;BME280;32161;48.148;-1.554;2022-08-25T05:53:50;100960.66;;;21.49;97.93
46464;BME280;32161;48.148;-1.554;2022-08-25T05:56:19;100973.97;;;21.47;97.91
46464;BME280;32161;48.148;-1.554;2022-08-25T05:58:48;100972.25;;;21.51;98.01
46464;BME280;32161;48.148;-1.554;2022-08-25T06:01:21;100975.81;;;21.51;97.92
46464;BME280;32161;48.148;-1.554;2022-08-25T06:04:03;100967.00;;;21.49;97.86
46464;BME280;32161;48.148;-1.554;2022-08-25T06:06:31;100970.59;;;21.50;97.83
46464;BME280;32161;48.148;-1.554;2022-08-25T06:09:00;100979.13;;;21.53;97.95
46464;BME280;32161;48.148;-1.554;2022-08-25T06:11:35;100980.44;;;21.56;97.67
46464;BME280;32161;48.148;-1.554;2022-08-25T06:14:05;100989.81;;;21.60;97.30
46464;BME280;32161;48.148;-1.554;2022-08-25T06:16:33;101006.13;;;21.61;97.10
46464;BME280;32161;48.148;-1.554;2022-08-25T06:19:02;101005.53;;;21.64;96.64
46464;BME280;32161;48.148;-1.554;2022-08-25T06:21:29;101010.75;;;21.66;96.80
46464;BME280;32161;48.148;-1.554;2022-08-25T06:23:57;101010.97;;;21.69;96.20
46464;BME280;32161;48.148;-1.554;2022-08-25T06:26:25;101019.28;;;21.69;96.37
46464;BME280;32161;48.148;-1.554;2022-08-25T06:28:54;101023.19;;;21.68;96.58
46464;BME280;32161;48.148;-1.554;2022-08-25T06:31:21;101022.88;;;21.70;96.95
46464;BME280;32161;48.148;-1.554;2022-08-25T06:33:50;101025.94;;;21.68;97.34
46464;BME280;32161;48.148;-1.554;2022-08-25T06:36:18;101026.69;;;21.74;96.68
46464;BME280;32161;48.148;-1.554;2022-08-25T06:38:47;101027.81;;;21.73;97.05
46464;BME280;32161;48.148;-1.554;2022-08-25T06:41:14;101039.16;;;21.72;96.79
46464;BME280;32161;48.148;-1.554;2022-08-25T06:43:43;101037.81;;;21.69;97.13
46464;BME280;32161;48.148;-1.554;2022-08-25T06:46:14;101033.44;;;21.68;97.19
46464;BME280;32161;48.148;-1.554;2022-08-25T06:48:42;101033.94;;;21.70;97.81
46464;BME280;32161;48.148;-1.554;2022-08-25T06:51:14;101041.41;;;21.69;97.92
46464;BME280;32161;48.148;-1.554;2022-08-25T06:53:43;101049.13;;;21.73;97.99
46464;BME280;32161;48.148;-1.554;2022-08-25T06:56:13;101041.66;;;21.73;98.04
46464;BME280;32161;48.148;-1.554;2022-08-25T06:58:41;101043.97;;;21.85;97.34
46464;BME280;32161;48.148;-1.554;2022-08-25T07:01:12;101045.16;;;21.79;98.33
46464;BME280;32161;48.148;-1.554;2022-08-25T07:03:40;101043.19;;;21.79;97.96
46464;BME280;32161;48.148;-1.554;2022-08-25T07:06:08;101047.31;;;21.82;98.54
46464;BME280;32161;48.148;-1.554;2022-08-25T07:08:36;101059.44;;;21.86;98.40
46464;BME280;32161;48.148;-1.554;2022-08-25T07:11:05;101054.97;;;21.90;97.87
46464;BME280;32161;48.148;-1.554;2022-08-25T07:13:34;101052.50;;;21.88;97.86
46464;BME280;32161;48.148;-1.554;2022-08-25T07:16:02;101059.41;;;21.91;98.37
46464;BME280;32161;48.148;-1.554;2022-08-25T07:18:32;101052.38;;;21.99;97.41
46464;BME280;32161;48.148;-1.554;2022-08-25T07:21:00;101064.25;;;21.99;97.39
46464;BME280;32161;48.148;-1.554;2022-08-25T07:23:28;101058.72;;;21.99;97.51
46464;BME280;32161;48.148;-1.554;2022-08-25T07:25:56;101056.53;;;21.96;97.58
46464;BME280;32161;48.148;-1.554;2022-08-25T07:28:33;101059.31;;;21.96;97.90
46464;BME280;32161;48.148;-1.554;2022-08-25T07:31:00;101063.72;;;21.97;97.31
46464;BME280;32161;48.148;-1.554;2022-08-25T07:33:28;101065.34;;;21.98;98.19
46464;BME280;32161;48.148;-1.554;2022-08-25T07:35:57;101066.56;;;21.92;97.91
46464;BME280;32161;48.148;-1.554;2022-08-25T07:38:23;101072.31;;;21.77;99.01
46464;BME280;32161;48.148;-1.554;2022-08-25T07:40:51;101071.56;;;21.90;98.90
46464;BME280;32161;48.148;-1.554;2022-08-25T07:43:21;101069.25;;;21.97;98.93
46464;BME280;32161;48.148;-1.554;2022-08-25T07:45:48;101071.72;;;21.80;99.42
46464;BME280;32161;48.148;-1.554;2022-08-25T07:48:16;101078.53;;;21.87;99.77
46464;BME280;32161;48.148;-1.554;2022-08-25T07:50:46;101083.31;;;22.01;99.43
46464;BME280;32161;48.148;-1.554;2022-08-25T07:53:16;101086.44;;;21.94;99.09
46464;BME280;32161;48.148;-1.554;2022-08-25T07:55:44;101081.31;;;21.87;99.78
46464;BME280;32161;48.148;-1.554;2022-08-25T07:58:12;101082.78;;;21.80;100.00
46464;BME280;32161;48.148;-1.554;2022-08-25T08:00:40;101094.91;;;21.84;100.00
46464;BME280;32161;48.148;-1.554;2022-08-25T08:03:09;101096.44;;;21.95;100.00
46464;BME280;32161;48.148;-1.554;2022-08-25T08:05:40;101097.84;;;21.92;100.00
46464;BME280;32161;48.148;-1.554;2022-08-25T08:08:07;101089.84;;;21.91;100.00
46464;BME280;32161;48.148;-1.554;2022-08-25T08:10:38;101098.72;;;21.88;100.00
46464;BME280;32161;48.148;-1.554;2022-08-25T08:13:06;101098.84;;;21.78;100.00
46464;BME280;32161;48.148;-1.554;2022-08-25T08:15:35;101104.00;;;21.65;100.00
46464;BME280;32161;48.148;-1.554;2022-08-25T08:18:03;101110.69;;;21.59;100.00
46464;BME280;32161;48.148;-1.554;2022-08-25T08:20:33;101113.66;;;21.68;100.00
46464;BME280;32161;48.148;-1.554;2022-08-25T08:23:03;101108.28;;;21.77;100.00
46464;BME280;32161;48.148;-1.554;2022-08-25T08:25:31;101110.59;;;21.69;100.00
46464;BME280;32161;48.148;-1.554;2022-08-25T08:28:00;101114.47;;;21.68;99.57
46464;BME280;32161;48.148;-1.554;2022-08-25T08:30:27;101116.44;;;21.68;100.00
46464;BME280;32161;48.148;-1.554;2022-08-25T08:32:55;101117.91;;;21.79;99.77
46464;BME280;32161;48.148;-1.554;2022-08-25T08:35:23;101121.28;;;21.52;100.00
46464;BME280;32161;48.148;-1.554;2022-08-25T08:37:51;101118.59;;;21.47;100.00
46464;BME280;32161;48.148;-1.554;2022-08-25T08:40:19;101117.88;;;21.36;100.00
46464;BME280;32161;48.148;-1.554;2022-08-25T08:43:00;101125.50;;;21.50;100.00
46464;BME280;32161;48.148;-1.554;2022-08-25T08:45:33;101118.41;;;21.09;100.00
46464;BME280;32161;48.148;-1.554;2022-08-25T08:48:32;101126.22;;;21.31;100.00
46464;BME280;32161;48.148;-1.554;2022-08-25T08:51:16;101127.44;;;21.49;100.00
46464;BME280;32161;48.148;-1.554;2022-08-25T08:53:51;101121.59;;;21.51;100.00
46464;BME280;32161;48.148;-1.554;2022-08-25T08:56:24;101126.41;;;21.40;100.00
46464;BME280;32161;48.148;-1.554;2022-08-25T08:58:57;101132.53;;;21.37;100.00
46464;BME280;32161;48.148;-1.554;2022-08-25T09:01:30;101125.16;;;21.27;100.00
46464;BME280;32161;48.148;-1.554;2022-08-25T09:04:07;101130.47;;;21.48;100.00
46464;BME280;32161;48.148;-1.554;2022-08-25T09:06:40;101133.66;;;21.60;100.00
46464;BME280;32161;48.148;-1.554;2022-08-25T09:09:13;101136.81;;;21.53;100.00
46464;BME280;32161;48.148;-1.554;2022-08-25T09:11:56;101130.72;;;21.51;100.00
46464;BME280;32161;48.148;-1.554;2022-08-25T09:14:41;101134.06;;;21.48;100.00
46464;BME280;32161;48.148;-1.554;2022-08-25T09:17:16;101149.19;;;21.56;100.00
46464;BME280;32161;48.148;-1.554;2022-08-25T09:20:30;101138.84;;;21.66;100.00
46464;BME280;32161;48.148;-1.554;2022-08-25T09:23:10;101138.56;;;21.68;100.00
46464;BME280;32161;48.148;-1.554;2022-08-25T09:25:48;101149.50;;;21.54;100.00
46464;BME280;32161;48.148;-1.554;2022-08-25T09:28:21;101147.72;;;21.63;100.00
46464;BME280;32161;48.148;-1.554;2022-08-25T09:30:58;101153.50;;;21.67;99.66
46464;BME280;32161;48.148;-1.554;2022-08-25T09:33:28;101157.38;;;21.42;99.98
46464;BME280;32161;48.148;-1.554;2022-08-25T09:35:57;101160.50;;;21.35;100.00
46464;BME280;32161;48.148;-1.554;2022-08-25T09:38:27;101157.81;;;21.54;100.00
46464;BME280;32161;48.148;-1.554;2022-08-25T09:40:58;101165.56;;;21.52;99.71
46464;BME280;32161;48.148;-1.554;2022-08-25T09:43:32;101164.88;;;21.65;99.73
46464;BME280;32161;48.148;-1.554;2022-08-25T09:46:08;101165.75;;;21.32;100.00
46464;BME280;32161;48.148;-1.554;2022-08-25T09:48:45;101164.78;;;21.17;100.00
46464;BME280;32161;48.148;-1.554;2022-08-25T09:51:20;101170.22;;;21.28;100.00
46464;BME280;32161;48.148;-1.554;2022-08-25T09:53:54;101169.91;;;21.29;100.00
46464;BME280;32161;48.148;-1.554;2022-08-25T09:56:25;101177.13;;;21.30;100.00
46464;BME280;32161;48.148;-1.554;2022-08-25T09:58:54;101156.94;;;21.30;100.00
46464;BME280;32161;48.148;-1.554;2022-08-25T10:01:27;101155.75;;;21.41;100.00
46464;BME280;32161;48.148;-1.554;2022-08-25T10:03:59;101169.63;;;21.60;100.00
46464;BME280;32161;48.148;-1.554;2022-08-25T10:06:32;101159.44;;;21.79;100.00
46464;BME280;32161;48.148;-1.554;2022-08-25T10:09:06;101163.91;;;21.99;100.00
46464;BME280;32161;48.148;-1.554;2022-08-25T10:11:38;101154.16;;;22.26;99.05
46464;BME280;32161;48.148;-1.554;2022-08-25T10:14:19;101160.59;;;22.40;98.74
46464;BME280;32161;48.148;-1.554;2022-08-25T10:16:49;101161.94;;;22.61;97.39
46464;BME280;32161;48.148;-1.554;2022-08-25T10:19:30;101160.13;;;22.71;96.72
46464;BME280;32161;48.148;-1.554;2022-08-25T10:22:07;101162.34;;;22.87;95.47
46464;BME280;32161;48.148;-1.554;2022-08-25T10:24:36;101165.06;;;22.74;94.50
46464;BME280;32161;48.148;-1.554;2022-08-25T10:27:15;101160.41;;;22.88;94.65
46464;BME280;32161;48.148;-1.554;2022-08-25T10:30:13;101154.28;;;22.91;93.38
46464;BME280;32161;48.148;-1.554;2022-08-25T10:35:55;101153.16;;;23.06;93.17
46464;BME280;32161;48.148;-1.554;2022-08-25T10:38:37;101160.56;;;22.97;92.87
46464;BME280;32161;48.148;-1.554;2022-08-25T10:41:41;101158.81;;;23.01;92.15
46464;BME280;32161;48.148;-1.554;2022-08-25T10:44:19;101152.13;;;23.02;92.80
46464;BME280;32161;48.148;-1.554;2022-08-25T10:50:26;101150.44;;;23.20;92.54
46464;BME280;32161;48.148;-1.554;2022-08-25T10:53:15;101162.72;;;23.46;90.75
46464;BME280;32161;48.148;-1.554;2022-08-25T10:55:58;101162.00;;;23.54;91.06
46464;BME280;32161;48.148;-1.554;2022-08-25T10:58:54;101158.22;;;23.78;89.50
46464;BME280;32161;48.148;-1.554;2022-08-25T11:01:38;101164.78;;;23.96;87.65
46464;BME280;32161;48.148;-1.554;2022-08-25T11:04:11;101166.34;;;23.88;88.05
46464;BME280;32161;48.148;-1.554;2022-08-25T11:06:47;101162.63;;;23.93;86.44
46464;BME280;32161;48.148;-1.554;2022-08-25T11:09:22;101169.31;;;23.92;86.58
46464;BME280;32161;48.148;-1.554;2022-08-25T11:11:56;101179.22;;;23.84;86.25
46464;BME280;32161;48.148;-1.554;2022-08-25T11:14:30;101176.00;;;23.77;85.59
46464;BME280;32161;48.148;-1.554;2022-08-25T11:17:09;101170.66;;;23.80;84.25
46464;BME280;32161;48.148;-1.554;2022-08-25T11:19:42;101176.59;;;23.46;84.81
46464;BME280;32161;48.148;-1.554;2022-08-25T11:22:20;101176.06;;;23.44;84.14
46464;BME280;32161;48.148;-1.554;2022-08-25T11:25:01;101173.44;;;23.20;84.22
46464;BME280;32161;48.148;-1.554;2022-08-25T11:27:40;101183.63;;;23.25;84.91
46464;BME280;32161;48.148;-1.554;2022-08-25T11:30:17;101176.81;;;23.03;85.06
46464;BME280;32161;48.148;-1.554;2022-08-25T11:32:49;101178.75;;;22.84;86.27
46464;BME280;32161;48.148;-1.554;2022-08-25T11:35:28;101181.38;;;22.75;85.93
46464;BME280;32161;48.148;-1.554;2022-08-25T11:38:24;101184.22;;;22.89;86.15
46464;BME280;32161;48.148;-1.554;2022-08-25T11:41:05;101181.22;;;22.85;86.63
46464;BME280;32161;48.148;-1.554;2022-08-25T11:44:02;101186.53;;;22.82;86.17
46464;BME280;32161;48.148;-1.554;2022-08-25T11:46:50;101189.53;;;22.85;85.67
46464;BME280;32161;48.148;-1.554;2022-08-25T11:49:40;101183.72;;;22.87;85.82
46464;BME280;32161;48.148;-1.554;2022-08-25T11:52:44;101186.16;;;22.88;85.23
46464;BME280;32161;48.148;-1.554;2022-08-25T11:55:18;101186.16;;;22.88;84.18
46464;BME280;32161;48.148;-1.554;2022-08-25T11:57:48;101194.81;;;22.87;83.66
46464;BME280;32161;48.148;-1.554;2022-08-25T12:00:36;101203.41;;;22.48;83.66
46464;BME280;32161;48.148;-1.554;2022-08-25T12:06:29;101202.50;;;22.71;81.00
46464;BME280;32161;48.148;-1.554;2022-08-25T12:09:19;101207.09;;;22.81;82.21
46464;BME280;32161;48.148;-1.554;2022-08-25T12:11:53;101199.47;;;22.92;83.29
46464;BME280;32161;48.148;-1.554;2022-08-25T12:14:44;101199.38;;;22.97;83.20
46464;BME280;32161;48.148;-1.554;2022-08-25T12:17:25;101198.19;;;23.17;84.03
46464;BME280;32161;48.148;-1.554;2022-08-25T12:20:04;101202.53;;;23.23;81.21
46464;BME280;32161;48.148;-1.554;2022-08-25T12:22:56;101211.00;;;23.45;81.53
46464;BME280;32161;48.148;-1.554;2022-08-25T12:25:47;101213.03;;;23.72;81.51
46464;BME280;32161;48.148;-1.554;2022-08-25T12:28:40;101218.25;;;24.01;79.92
46464;BME280;32161;48.148;-1.554;2022-08-25T12:31:35;101216.50;;;24.05;78.96
46464;BME280;32161;48.148;-1.554;2022-08-25T12:34:21;101216.00;;;24.03;79.57
46464;BME280;32161;48.148;-1.554;2022-08-25T12:36:58;101215.56;;;24.24;78.21
46464;BME280;32161;48.148;-1.554;2022-08-25T12:39:35;101220.50;;;24.13;78.59
46464;BME280;32161;48.148;-1.554;2022-08-25T12:42:06;101229.16;;;24.11;77.68
46464;BME280;32161;48.148;-1.554;2022-08-25T12:44:43;101224.44;;;24.12;78.62
46464;BME280;32161;48.148;-1.554;2022-08-25T12:47:27;101225.88;;;24.23;77.86
46464;BME280;32161;48.148;-1.554;2022-08-25T12:50:34;101223.91;;;24.38;76.84
46464;BME280;32161;48.148;-1.554;2022-08-25T12:53:11;101220.28;;;24.51;75.68
46464;BME280;32161;48.148;-1.554;2022-08-25T12:55:46;101227.50;;;24.38;79.40
46464;BME280;32161;48.148;-1.554;2022-08-25T12:58:15;101232.22;;;24.51;77.89
46464;BME280;32161;48.148;-1.554;2022-08-25T13:01:12;101240.47;;;24.79;75.55
46464;BME280;32161;48.148;-1.554;2022-08-25T13:04:10;101238.09;;;24.86;75.25
46464;BME280;32161;48.148;-1.554;2022-08-25T13:07:03;101242.41;;;24.92;70.62
46464;BME280;32161;48.148;-1.554;2022-08-25T13:12:45;101232.47;;;25.00;73.11
46464;BME280;32161;48.148;-1.554;2022-08-25T13:15:25;101236.34;;;25.13;73.28
46464;BME280;32161;48.148;-1.554;2022-08-25T13:18:11;101238.19;;;25.17;72.93
46464;BME280;32161;48.148;-1.554;2022-08-25T13:20:38;101252.41;;;25.16;72.38